sensor_id;sensor_type;location;lat;lon;timestamp;P1;durP1;ratioP1;P2;durP2;ratioP2
11604;SDS011;5858;43.076;25.626;2023-02-19T00:01:32;16.47;;;8.50;;
11604;SDS011;5858;43.076;25.626;2023-02-19T00:04:03;16.47;;;9.00;;
11604;SDS011;5858;43.076;25.626;2023-02-19T00:06:32;14.60;;;9.70;;
11604;SDS011;5858;43.076;25.626;2023-02-19T00:09:00;16.53;;;10.10;;
11604;SDS011;5858;43.076;25.626;2023-02-19T00:11:29;16.07;;;9.60;;
11604;SDS011;5858;43.076;25.626;2023-02-19T00:13:58;17.43;;;10.50;;
11604;SDS011;5858;43.076;25.626;2023-02-19T00:16:27;14.37;;;10.60;;
11604;SDS011;5858;43.076;25.626;2023-02-19T00:18:56;16.43;;;9.17;;
11604;SDS011;5858;43.076;25.626;2023-02-19T00:21:25;14.20;;;8.03;;
11604;SDS011;5858;43.076;25.626;2023-02-19T00:23:54;13.53;;;8.57;;
11604;SDS011;5858;43.076;25.626;2023-02-19T00:26:22;17.07;;;8.90;;
11604;SDS011;5858;43.076;25.626;2023-02-19T00:28:49;17.03;;;10.13;;
11604;SDS011;5858;43.076;25.626;2023-02-19T00:31:18;19.67;;;11.00;;
11604;SDS011;5858;43.076;25.626;2023-02-19T00:33:48;29.67;;;12.80;;
11604;SDS011;5858;43.076;25.626;2023-02-19T00:36:17;25.27;;;12.30;;
11604;SDS011;5858;43.076;25.626;2023-02-19T00:38:47;26.40;;;13.10;;
11604;SDS011;5858;43.076;25.626;2023-02-19T00:41:15;29.20;;;13.30;;
11604;SDS011;5858;43.076;25.626;2023-02-19T00:43:47;28.97;;;14.80;;
11604;SDS011;5858;43.076;25.626;2023-02-19T00:46:18;27.40;;;11.87;;
11604;SDS011;5858;43.076;25.626;2023-02-19T00:48:46;23.33;;;11.77;;
11604;SDS011;5858;43.076;25.626;2023-02-19T00:51:14;16.33;;;9.97;;
11604;SDS011;5858;43.076;25.626;2023-02-19T00:53:42;22.07;;;11.47;;
11604;SDS011;5858;43.076;25.626;2023-02-19T00:56:11;20.33;;;9.93;;
11604;SDS011;5858;43.076;25.626;2023-02-19T00:58:38;19.57;;;10.97;;
11604;SDS011;5858;43.076;25.626;2023-02-19T01:01:06;20.20;;;10.70;;
11604;SDS011;5858;43.076;25.626;2023-02-19T01:03:34;17.83;;;9.87;;
11604;SDS011;5858;43.076;25.626;2023-02-19T01:06:02;17.40;;;10.90;;
11604;SDS011;5858;43.076;25.626;2023-02-19T01:08:30;20.57;;;10.27;;
11604;SDS011;5858;43.076;25.626;2023-02-19T01:10:58;20.73;;;11.17;;
11604;SDS011;5858;43.076;25.626;2023-02-19T01:13:27;21.30;;;11.27;;
11604;SDS011;5858;43.076;25.626;2023-02-19T01:16:01;18.73;;;11.23;;
11604;SDS011;5858;43.076;25.626;2023-02-19T01:18:29;22.67;;;12.10;;
11604;SDS011;5858;43.076;25.626;2023-02-19T01:20:57;19.10;;;11.63;;
11604;SDS011;5858;43.076;25.626;2023-02-19T01:23:24;19.80;;;12.27;;
11604;SDS011;5858;43.076;25.626;2023-02-19T01:25:51;22.27;;;12.53;;
11604;SDS011;5858;43.076;25.626;2023-02-19T01:28:18;16.93;;;11.10;;
11604;SDS011;5858;43.076;25.626;2023-02-19T01:30:48;18.80;;;11.53;;
11604;SDS011;5858;43.076;25.626;2023-02-19T01:33:15;22.80;;;11.40;;
11604;SDS011;5858;43.076;25.626;2023-02-19T01:35:42;17.00;;;11.13;;
11604;SDS011;5858;43.076;25.626;2023-02-19T01:38:09;17.67;;;11.13;;
11604;SDS011;5858;43.076;25.626;2023-02-19T01:40:37;16.67;;;10.93;;
11604;SDS011;5858;43.076;25.626;2023-02-19T01:43:04;21.50;;;11.40;;
11604;SDS011;5858;43.076;25.626;2023-02-19T01:45:41;22.13;;;13.40;;
11604;SDS011;5858;43.076;25.626;2023-02-19T01:48:11;19.43;;;11.83;;
11604;SDS011;5858;43.076;25.626;2023-02-19T01:50:42;21.27;;;10.90;;
11604;SDS011;5858;43.076;25.626;2023-02-19T01:53:13;18.20;;;10.83;;
11604;SDS011;5858;43.076;25.626;2023-02-19T01:55:43;16.97;;;10.60;;
11604;SDS011;5858;43.076;25.626;2023-02-19T01:58:13;20.67;;;11.57;;
11604;SDS011;5858;43.076;25.626;2023-02-19T02:00:42;24.47;;;13.73;;
11604;SDS011;5858;43.076;25.626;2023-02-19T02:03:10;25.13;;;12.17;;
11604;SDS011;5858;43.076;25.626;2023-02-19T02:05:43;22.17;;;12.10;;
11604;SDS011;5858;43.076;25.626;2023-02-19T02:08:16;18.37;;;12.73;;
11604;SDS011;5858;43.076;25.626;2023-02-19T02:11:01;22.20;;;11.73;;
11604;SDS011;5858;43.076;25.626;2023-02-19T02:13:29;23.80;;;11.87;;
11604;SDS011;5858;43.076;25.626;2023-02-19T02:16:02;19.37;;;11.73;;
11604;SDS011;5858;43.076;25.626;2023-02-19T02:18:43;19.00;;;11.63;;
11604;SDS011;5858;43.076;25.626;2023-02-19T02:21:35;22.13;;;11.70;;
11604;SDS011;5858;43.076;25.626;2023-02-19T02:24:24;23.30;;;12.33;;
11604;SDS011;5858;43.076;25.626;2023-02-19T02:27:16;19.73;;;12.43;;
11604;SDS011;5858;43.076;25.626;2023-02-19T02:30:11;18.10;;;11.03;;
11604;SDS011;5858;43.076;25.626;2023-02-19T02:32:49;17.03;;;10.27;;
11604;SDS011;5858;43.076;25.626;2023-02-19T02:35:22;21.97;;;12.10;;
11604;SDS011;5858;43.076;25.626;2023-02-19T02:37:53;16.97;;;11.63;;
11604;SDS011;5858;43.076;25.626;2023-02-19T02:40:23;20.97;;;12.57;;
11604;SDS011;5858;43.076;25.626;2023-02-19T02:42:51;18.70;;;11.60;;
11604;SDS011;5858;43.076;25.626;2023-02-19T02:45:23;21.60;;;11.93;;
11604;SDS011;5858;43.076;25.626;2023-02-19T02:48:12;15.40;;;10.47;;
11604;SDS011;5858;43.076;25.626;2023-02-19T02:50:46;21.63;;;10.60;;
11604;SDS011;5858;43.076;25.626;2023-02-19T02:53:18;15.90;;;9.90;;
11604;SDS011;5858;43.076;25.626;2023-02-19T02:56:06;21.23;;;11.90;;
11604;SDS011;5858;43.076;25.626;2023-02-19T02:58:35;22.07;;;12.43;;
11604;SDS011;5858;43.076;25.626;2023-02-19T03:01:06;20.37;;;12.00;;
11604;SDS011;5858;43.076;25.626;2023-02-19T03:03:54;20.70;;;12.50;;
11604;SDS011;5858;43.076;25.626;2023-02-19T03:06:27;17.73;;;12.27;;
11604;SDS011;5858;43.076;25.626;2023-02-19T03:09:01;20.80;;;12.10;;
11604;SDS011;5858;43.076;25.626;2023-02-19T03:11:34;16.90;;;11.30;;
11604;SDS011;5858;43.076;25.626;2023-02-19T03:14:24;16.70;;;11.53;;
11604;SDS011;5858;43.076;25.626;2023-02-19T03:17:17;18.83;;;11.40;;
11604;SDS011;5858;43.076;25.626;2023-02-19T03:20:08;15.60;;;11.10;;
11604;SDS011;5858;43.076;25.626;2023-02-19T03:22:39;17.60;;;12.03;;
11604;SDS011;5858;43.076;25.626;2023-02-19T03:25:11;19.90;;;11.77;;
11604;SDS011;5858;43.076;25.626;2023-02-19T03:27:59;20.90;;;12.50;;
11604;SDS011;5858;43.076;25.626;2023-02-19T03:30:28;19.10;;;12.53;;
11604;SDS011;5858;43.076;25.626;2023-02-19T03:33:00;20.07;;;13.20;;
11604;SDS011;5858;43.076;25.626;2023-02-19T03:35:34;26.40;;;13.53;;
11604;SDS011;5858;43.076;25.626;2023-02-19T03:38:05;19.07;;;13.07;;
11604;SDS011;5858;43.076;25.626;2023-02-19T03:40:38;22.20;;;13.10;;
11604;SDS011;5858;43.076;25.626;2023-02-19T03:43:13;22.83;;;12.70;;
11604;SDS011;5858;43.076;25.626;2023-02-19T03:45:47;18.37;;;12.47;;
11604;SDS011;5858;43.076;25.626;2023-02-19T03:48:27;18.07;;;12.93;;
11604;SDS011;5858;43.076;25.626;2023-02-19T03:51:02;18.27;;;12.47;;
11604;SDS011;5858;43.076;25.626;2023-02-19T03:53:39;17.27;;;11.30;;
11604;SDS011;5858;43.076;25.626;2023-02-19T03:56:15;20.47;;;11.67;;
11604;SDS011;5858;43.076;25.626;2023-02-19T03:58:48;17.23;;;10.73;;
11604;SDS011;5858;43.076;25.626;2023-02-19T04:01:22;17.93;;;10.90;;
11604;SDS011;5858;43.076;25.626;2023-02-19T04:03:55;19.27;;;10.57;;
11604;SDS011;5858;43.076;25.626;2023-02-19T04:06:28;15.23;;;10.20;;
11604;SDS011;5858;43.076;25.626;2023-02-19T04:08:59;14.87;;;10.37;;
11604;SDS011;5858;43.076;25.626;2023-02-19T04:11:31;17.23;;;11.20;;
11604;SDS011;5858;43.076;25.626;2023-02-19T04:14:00;21.80;;;13.03;;
11604;SDS011;5858;43.076;25.626;2023-02-19T04:16:32;20.33;;;12.23;;
11604;SDS011;5858;43.076;25.626;2023-02-19T04:19:06;21.63;;;12.83;;
11604;SDS011;5858;43.076;25.626;2023-02-19T04:21:37;20.50;;;12.90;;
11604;SDS011;5858;43.076;25.626;2023-02-19T04:24:08;21.07;;;13.63;;
11604;SDS011;5858;43.076;25.626;2023-02-19T04:26:47;23.80;;;14.67;;
11604;SDS011;5858;43.076;25.626;2023-02-19T04:29:14;19.47;;;12.90;;
11604;SDS011;5858;43.076;25.626;2023-02-19T04:31:41;22.60;;;14.83;;
11604;SDS011;5858;43.076;25.626;2023-02-19T04:34:10;27.50;;;14.00;;
11604;SDS011;5858;43.076;25.626;2023-02-19T04:36:37;18.60;;;12.67;;
11604;SDS011;5858;43.076;25.626;2023-02-19T04:39:05;23.30;;;13.27;;
11604;SDS011;5858;43.076;25.626;2023-02-19T04:41:32;24.17;;;12.67;;
11604;SDS011;5858;43.076;25.626;2023-02-19T04:43:59;19.33;;;12.97;;
11604;SDS011;5858;43.076;25.626;2023-02-19T04:46:26;24.47;;;13.43;;
11604;SDS011;5858;43.076;25.626;2023-02-19T04:48:53;17.37;;;11.47;;
11604;SDS011;5858;43.076;25.626;2023-02-19T04:51:22;17.00;;;10.73;;
11604;SDS011;5858;43.076;25.626;2023-02-19T04:53:50;12.73;;;9.97;;
11604;SDS011;5858;43.076;25.626;2023-02-19T04:56:17;18.00;;;8.87;;
11604;SDS011;5858;43.076;25.626;2023-02-19T04:58:50;13.50;;;9.47;;
11604;SDS011;5858;43.076;25.626;2023-02-19T05:01:30;15.87;;;8.70;;
11604;SDS011;5858;43.076;25.626;2023-02-19T05:03:57;17.17;;;8.63;;
11604;SDS011;5858;43.076;25.626;2023-02-19T05:06:25;15.10;;;9.77;;
11604;SDS011;5858;43.076;25.626;2023-02-19T05:08:53;17.60;;;10.93;;
11604;SDS011;5858;43.076;25.626;2023-02-19T05:11:20;19.17;;;10.63;;
11604;SDS011;5858;43.076;25.626;2023-02-19T05:13:48;17.40;;;11.53;;
11604;SDS011;5858;43.076;25.626;2023-02-19T05:16:15;18.00;;;10.87;;
11604;SDS011;5858;43.076;25.626;2023-02-19T05:18:42;18.23;;;10.87;;
11604;SDS011;5858;43.076;25.626;2023-02-19T05:21:11;15.00;;;9.90;;
11604;SDS011;5858;43.076;25.626;2023-02-19T05:23:40;17.33;;;9.63;;
11604;SDS011;5858;43.076;25.626;2023-02-19T05:26:08;16.03;;;9.73;;
11604;SDS011;5858;43.076;25.626;2023-02-19T05:28:39;16.83;;;8.80;;
11604;SDS011;5858;43.076;25.626;2023-02-19T05:31:07;16.03;;;8.93;;
11604;SDS011;5858;43.076;25.626;2023-02-19T05:33:37;12.67;;;8.77;;
11604;SDS011;5858;43.076;25.626;2023-02-19T05:36:09;15.70;;;9.20;;
11604;SDS011;5858;43.076;25.626;2023-02-19T05:38:40;17.07;;;10.00;;
11604;SDS011;5858;43.076;25.626;2023-02-19T05:41:08;34.57;;;21.90;;
11604;SDS011;5858;43.076;25.626;2023-02-19T05:43:41;28.87;;;16.60;;
11604;SDS011;5858;43.076;25.626;2023-02-19T05:46:19;19.13;;;13.03;;
11604;SDS011;5858;43.076;25.626;2023-02-19T05:48:54;17.53;;;11.57;;
11604;SDS011;5858;43.076;25.626;2023-02-19T05:51:23;15.83;;;10.50;;
11604;SDS011;5858;43.076;25.626;2023-02-19T05:53:54;18.00;;;9.57;;
11604;SDS011;5858;43.076;25.626;2023-02-19T05:56:34;13.67;;;8.40;;
11604;SDS011;5858;43.076;25.626;2023-02-19T05:59:33;13.47;;;8.67;;
11604;SDS011;5858;43.076;25.626;2023-02-19T06:02:00;11.07;;;7.67;;
11604;SDS011;5858;43.076;25.626;2023-02-19T06:04:35;11.20;;;8.20;;
11604;SDS011;5858;43.076;25.626;2023-02-19T06:07:11;15.13;;;9.53;;
11604;SDS011;5858;43.076;25.626;2023-02-19T06:09:46;11.87;;;8.80;;
11604;SDS011;5858;43.076;25.626;2023-02-19T06:12:26;12.83;;;8.93;;
11604;SDS011;5858;43.076;25.626;2023-02-19T06:14:54;13.23;;;9.80;;
11604;SDS011;5858;43.076;25.626;2023-02-19T06:17:27;11.57;;;8.17;;
11604;SDS011;5858;43.076;25.626;2023-02-19T06:19:55;15.37;;;10.43;;
11604;SDS011;5858;43.076;25.626;2023-02-19T06:22:22;13.37;;;9.13;;
11604;SDS011;5858;43.076;25.626;2023-02-19T06:24:54;11.10;;;7.90;;
11604;SDS011;5858;43.076;25.626;2023-02-19T06:27:24;15.17;;;8.97;;
11604;SDS011;5858;43.076;25.626;2023-02-19T06:30:05;15.80;;;8.50;;
11604;SDS011;5858;43.076;25.626;2023-02-19T06:32:36;13.53;;;8.17;;
11604;SDS011;5858;43.076;25.626;2023-02-19T06:35:08;14.97;;;8.43;;
11604;SDS011;5858;43.076;25.626;2023-02-19T06:37:39;14.60;;;9.20;;
11604;SDS011;5858;43.076;25.626;2023-02-19T06:42:55;15.57;;;9.30;;
11604;SDS011;5858;43.076;25.626;2023-02-19T06:45:25;17.53;;;10.50;;
11604;SDS011;5858;43.076;25.626;2023-02-19T06:47:53;13.43;;;9.33;;
11604;SDS011;5858;43.076;25.626;2023-02-19T06:50:24;17.47;;;9.83;;
11604;SDS011;5858;43.076;25.626;2023-02-19T06:52:51;16.87;;;12.57;;
11604;SDS011;5858;43.076;25.626;2023-02-19T06:55:18;20.00;;;14.00;;
11604;SDS011;5858;43.076;25.626;2023-02-19T07:01:01;21.17;;;13.83;;
11604;SDS011;5858;43.076;25.626;2023-02-19T07:03:28;17.33;;;11.47;;
11604;SDS011;5858;43.076;25.626;2023-02-19T07:09:08;9.53;;;7.30;;
11604;SDS011;5858;43.076;25.626;2023-02-19T07:12:08;11.73;;;6.90;;
11604;SDS011;5858;43.076;25.626;2023-02-19T07:14:57;6.93;;;5.17;;
11604;SDS011;5858;43.076;25.626;2023-02-19T07:17:30;8.17;;;4.57;;
11604;SDS011;5858;43.076;25.626;2023-02-19T07:19:59;8.37;;;5.50;;
11604;SDS011;5858;43.076;25.626;2023-02-19T07:22:27;8.27;;;4.87;;
11604;SDS011;5858;43.076;25.626;2023-02-19T07:24:53;8.00;;;3.90;;
11604;SDS011;5858;43.076;25.626;2023-02-19T07:27:21;10.33;;;3.90;;
11604;SDS011;5858;43.076;25.626;2023-02-19T07:29:48;4.67;;;3.50;;
11604;SDS011;5858;43.076;25.626;2023-02-19T07:32:16;6.73;;;3.53;;
11604;SDS011;5858;43.076;25.626;2023-02-19T07:34:43;4.33;;;3.43;;
11604;SDS011;5858;43.076;25.626;2023-02-19T07:37:10;3.67;;;2.93;;
11604;SDS011;5858;43.076;25.626;2023-02-19T07:39:37;13.73;;;4.23;;
11604;SDS011;5858;43.076;25.626;2023-02-19T07:42:05;6.43;;;3.40;;
11604;SDS011;5858;43.076;25.626;2023-02-19T07:44:32;5.87;;;3.40;;
11604;SDS011;5858;43.076;25.626;2023-02-19T07:46:59;4.60;;;3.63;;
11604;SDS011;5858;43.076;25.626;2023-02-19T07:49:28;7.37;;;3.37;;
11604;SDS011;5858;43.076;25.626;2023-02-19T07:51:57;12.07;;;4.33;;
11604;SDS011;5858;43.076;25.626;2023-02-19T07:54:25;5.63;;;3.10;;
11604;SDS011;5858;43.076;25.626;2023-02-19T07:56:55;6.07;;;2.67;;
11604;SDS011;5858;43.076;25.626;2023-02-19T07:59:23;6.73;;;2.87;;
11604;SDS011;5858;43.076;25.626;2023-02-19T08:01:53;10.93;;;3.60;;
11604;SDS011;5858;43.076;25.626;2023-02-19T08:04:39;4.60;;;3.13;;
11604;SDS011;5858;43.076;25.626;2023-02-19T08:07:06;3.73;;;2.10;;
11604;SDS011;5858;43.076;25.626;2023-02-19T08:09:36;4.70;;;2.93;;
11604;SDS011;5858;43.076;25.626;2023-02-19T08:12:03;6.30;;;3.13;;
11604;SDS011;5858;43.076;25.626;2023-02-19T08:14:48;5.77;;;2.93;;
11604;SDS011;5858;43.076;25.626;2023-02-19T08:17:16;4.17;;;2.37;;
11604;SDS011;5858;43.076;25.626;2023-02-19T08:19:45;4.90;;;2.50;;
11604;SDS011;5858;43.076;25.626;2023-02-19T08:22:12;2.53;;;2.33;;
11604;SDS011;5858;43.076;25.626;2023-02-19T08:24:40;6.40;;;2.67;;
11604;SDS011;5858;43.076;25.626;2023-02-19T08:27:09;3.87;;;2.07;;
11604;SDS011;5858;43.076;25.626;2023-02-19T08:29:36;5.23;;;2.50;;
11604;SDS011;5858;43.076;25.626;2023-02-19T08:32:03;3.53;;;2.13;;
11604;SDS011;5858;43.076;25.626;2023-02-19T08:34:52;8.47;;;2.90;;
11604;SDS011;5858;43.076;25.626;2023-02-19T08:37:20;6.17;;;2.53;;
11604;SDS011;5858;43.076;25.626;2023-02-19T08:39:47;3.50;;;2.43;;
11604;SDS011;5858;43.076;25.626;2023-02-19T08:42:14;2.87;;;2.00;;
11604;SDS011;5858;43.076;25.626;2023-02-19T08:44:47;3.30;;;2.10;;
11604;SDS011;5858;43.076;25.626;2023-02-19T08:47:17;4.37;;;2.30;;
11604;SDS011;5858;43.076;25.626;2023-02-19T08:49:44;3.20;;;2.27;;
11604;SDS011;5858;43.076;25.626;2023-02-19T08:52:14;2.67;;;2.17;;
11604;SDS011;5858;43.076;25.626;2023-02-19T08:54:42;4.68;;;2.50;;
11604;SDS011;5858;43.076;25.626;2023-02-19T08:57:13;4.80;;;2.07;;
11604;SDS011;5858;43.076;25.626;2023-02-19T08:59:46;7.67;;;2.10;;
11604;SDS011;5858;43.076;25.626;2023-02-19T09:02:13;4.10;;;2.00;;
11604;SDS011;5858;43.076;25.626;2023-02-19T09:04:44;3.80;;;1.83;;
11604;SDS011;5858;43.076;25.626;2023-02-19T09:07:28;3.50;;;2.15;;
11604;SDS011;5858;43.076;25.626;2023-02-19T09:09:55;2.43;;;2.10;;
11604;SDS011;5858;43.076;25.626;2023-02-19T09:12:23;2.80;;;1.88;;
11604;SDS011;5858;43.076;25.626;2023-02-19T09:14:57;3.23;;;1.80;;
11604;SDS011;5858;43.076;25.626;2023-02-19T09:17:31;2.15;;;1.95;;
11604;SDS011;5858;43.076;25.626;2023-02-19T09:19:58;4.20;;;2.03;;
11604;SDS011;5858;43.076;25.626;2023-02-19T09:22:25;3.57;;;1.93;;
11604;SDS011;5858;43.076;25.626;2023-02-19T09:24:54;3.42;;;1.70;;
11604;SDS011;5858;43.076;25.626;2023-02-19T09:27:21;2.20;;;1.60;;
11604;SDS011;5858;43.076;25.626;2023-02-19T09:29:52;2.03;;;1.45;;
11604;SDS011;5858;43.076;25.626;2023-02-19T09:32:24;2.53;;;1.90;;
11604;SDS011;5858;43.076;25.626;2023-02-19T09:35:01;6.25;;;1.90;;
11604;SDS011;5858;43.076;25.626;2023-02-19T09:37:31;3.38;;;1.67;;
11604;SDS011;5858;43.076;25.626;2023-02-19T09:40:00;4.97;;;1.45;;
11604;SDS011;5858;43.076;25.626;2023-02-19T09:42:27;3.67;;;1.85;;
11604;SDS011;5858;43.076;25.626;2023-02-19T09:44:59;6.45;;;1.67;;
11604;SDS011;5858;43.076;25.626;2023-02-19T09:47:27;2.08;;;1.40;;
11604;SDS011;5858;43.076;25.626;2023-02-19T09:49:58;5.72;;;1.50;;
11604;SDS011;5858;43.076;25.626;2023-02-19T09:52:31;2.80;;;1.63;;
11604;SDS011;5858;43.076;25.626;2023-02-19T09:55:12;3.30;;;1.58;;
11604;SDS011;5858;43.076;25.626;2023-02-19T09:57:40;3.60;;;1.50;;
11604;SDS011;5858;43.076;25.626;2023-02-19T10:00:19;2.60;;;1.67;;
11604;SDS011;5858;43.076;25.626;2023-02-19T10:02:59;2.60;;;1.90;;
11604;SDS011;5858;43.076;25.626;2023-02-19T10:05:51;1.85;;;1.60;;
11604;SDS011;5858;43.076;25.626;2023-02-19T10:08:33;2.58;;;1.40;;
11604;SDS011;5858;43.076;25.626;2023-02-19T10:11:10;2.08;;;1.55;;
11604;SDS011;5858;43.076;25.626;2023-02-19T10:13:39;2.75;;;1.67;;
11604;SDS011;5858;43.076;25.626;2023-02-19T10:16:09;3.20;;;1.75;;
11604;SDS011;5858;43.076;25.626;2023-02-19T10:18:43;2.67;;;1.63;;
11604;SDS011;5858;43.076;25.626;2023-02-19T10:21:17;3.15;;;1.30;;
11604;SDS011;5858;43.076;25.626;2023-02-19T10:23:45;3.42;;;1.58;;
11604;SDS011;5858;43.076;25.626;2023-02-19T10:26:26;6.28;;;1.52;;
11604;SDS011;5858;43.076;25.626;2023-02-19T10:29:28;4.05;;;1.40;;
11604;SDS011;5858;43.076;25.626;2023-02-19T10:32:13;4.13;;;1.77;;
11604;SDS011;5858;43.076;25.626;2023-02-19T10:38:39;4.50;;;1.63;;
11604;SDS011;5858;43.076;25.626;2023-02-19T10:41:33;1.40;;;1.30;;
11604;SDS011;5858;43.076;25.626;2023-02-19T10:44:37;1.98;;;1.42;;
11604;SDS011;5858;43.076;25.626;2023-02-19T10:47:26;2.17;;;1.35;;
11604;SDS011;5858;43.076;25.626;2023-02-19T10:53:19;4.68;;;1.23;;
11604;SDS011;5858;43.076;25.626;2023-02-19T10:59:02;1.80;;;1.15;;
11604;SDS011;5858;43.076;25.626;2023-02-19T11:02:14;1.63;;;1.30;;
11604;SDS011;5858;43.076;25.626;2023-02-19T11:05:17;1.70;;;0.93;;
11604;SDS011;5858;43.076;25.626;2023-02-19T11:07:50;1.65;;;1.25;;
11604;SDS011;5858;43.076;25.626;2023-02-19T11:10:24;2.63;;;1.20;;
11604;SDS011;5858;43.076;25.626;2023-02-19T11:12:59;1.40;;;1.17;;
11604;SDS011;5858;43.076;25.626;2023-02-19T11:15:31;1.40;;;1.08;;
11604;SDS011;5858;43.076;25.626;2023-02-19T11:18:02;1.95;;;1.13;;
11604;SDS011;5858;43.076;25.626;2023-02-19T11:20:38;3.70;;;1.30;;
11604;SDS011;5858;43.076;25.626;2023-02-19T11:23:23;1.65;;;1.20;;
11604;SDS011;5858;43.076;25.626;2023-02-19T11:26:21;2.13;;;1.58;;
11604;SDS011;5858;43.076;25.626;2023-02-19T11:28:54;2.00;;;1.20;;
11604;SDS011;5858;43.076;25.626;2023-02-19T11:31:25;5.50;;;1.48;;
11604;SDS011;5858;43.076;25.626;2023-02-19T11:33:56;2.80;;;1.48;;
11604;SDS011;5858;43.076;25.626;2023-02-19T11:36:26;15.20;;;2.65;;
11604;SDS011;5858;43.076;25.626;2023-02-19T11:39:11;1.67;;;1.27;;
11604;SDS011;5858;43.076;25.626;2023-02-19T11:41:54;1.40;;;1.30;;
11604;SDS011;5858;43.076;25.626;2023-02-19T11:44:42;1.80;;;1.45;;
11604;SDS011;5858;43.076;25.626;2023-02-19T11:50:59;1.95;;;1.83;;
11604;SDS011;5858;43.076;25.626;2023-02-19T11:53:52;1.80;;;1.60;;
11604;SDS011;5858;43.076;25.626;2023-02-19T11:56:36;4.10;;;1.40;;
11604;SDS011;5858;43.076;25.626;2023-02-19T11:59:11;3.08;;;1.65;;
11604;SDS011;5858;43.076;25.626;2023-02-19T12:08:36;1.70;;;1.52;;
11604;SDS011;5858;43.076;25.626;2023-02-19T12:11:36;2.13;;;1.30;;
11604;SDS011;5858;43.076;25.626;2023-02-19T12:20:45;2.95;;;1.40;;
11604;SDS011;5858;43.076;25.626;2023-02-19T12:23:25;2.53;;;1.35;;
11604;SDS011;5858;43.076;25.626;2023-02-19T12:26:26;3.63;;;1.90;;
11604;SDS011;5858;43.076;25.626;2023-02-19T12:29:09;4.07;;;1.80;;
11604;SDS011;5858;43.076;25.626;2023-02-19T12:31:59;1.70;;;1.40;;
11604;SDS011;5858;43.076;25.626;2023-02-19T12:35:14;2.50;;;1.55;;
11604;SDS011;5858;43.076;25.626;2023-02-19T12:37:59;2.72;;;1.60;;
11604;SDS011;5858;43.076;25.626;2023-02-19T12:40:41;1.50;;;1.40;;
11604;SDS011;5858;43.076;25.626;2023-02-19T12:43:39;1.52;;;1.42;;
11604;SDS011;5858;43.076;25.626;2023-02-19T12:49:29;1.58;;;1.27;;
11604;SDS011;5858;43.076;25.626;2023-02-19T12:52:18;2.90;;;1.50;;
11604;SDS011;5858;43.076;25.626;2023-02-19T12:54:51;2.05;;;1.10;;
11604;SDS011;5858;43.076;25.626;2023-02-19T12:57:35;2.92;;;1.45;;
11604;SDS011;5858;43.076;25.626;2023-02-19T13:00:30;2.28;;;1.60;;
11604;SDS011;5858;43.076;25.626;2023-02-19T13:03:10;1.45;;;1.35;;
11604;SDS011;5858;43.076;25.626;2023-02-19T13:05:51;1.08;;;0.95;;
11604;SDS011;5858;43.076;25.626;2023-02-19T13:08:25;1.63;;;1.27;;
11604;SDS011;5858;43.076;25.626;2023-02-19T13:10:58;1.75;;;1.00;;
11604;SDS011;5858;43.076;25.626;2023-02-19T13:16:18;1.27;;;1.10;;
11604;SDS011;5858;43.076;25.626;2023-02-19T13:18:48;3.95;;;1.13;;
11604;SDS011;5858;43.076;25.626;2023-02-19T13:21:17;1.45;;;1.13;;
11604;SDS011;5858;43.076;25.626;2023-02-19T13:24:01;1.52;;;1.10;;
11604;SDS011;5858;43.076;25.626;2023-02-19T13:26:45;2.15;;;1.30;;
11604;SDS011;5858;43.076;25.626;2023-02-19T13:29:28;1.30;;;1.20;;
11604;SDS011;5858;43.076;25.626;2023-02-19T13:32:19;4.95;;;1.40;;
11604;SDS011;5858;43.076;25.626;2023-02-19T13:35:18;1.65;;;1.10;;
11604;SDS011;5858;43.076;25.626;2023-02-19T13:37:51;2.70;;;1.05;;
11604;SDS011;5858;43.076;25.626;2023-02-19T13:40:25;1.80;;;0.77;;
11604;SDS011;5858;43.076;25.626;2023-02-19T13:42:58;1.25;;;1.15;;
11604;SDS011;5858;43.076;25.626;2023-02-19T13:45:30;2.00;;;1.10;;
11604;SDS011;5858;43.076;25.626;2023-02-19T13:48:11;2.65;;;1.40;;
11604;SDS011;5858;43.076;25.626;2023-02-19T13:50:40;6.78;;;1.25;;
11604;SDS011;5858;43.076;25.626;2023-02-19T14:02:44;3.05;;;1.10;;
11604;SDS011;5858;43.076;25.626;2023-02-19T14:08:50;3.92;;;1.20;;
11604;SDS011;5858;43.076;25.626;2023-02-19T14:12:19;3.72;;;1.50;;
11604;SDS011;5858;43.076;25.626;2023-02-19T14:14:49;1.90;;;1.73;;
11604;SDS011;5858;43.076;25.626;2023-02-19T14:17:26;1.90;;;1.42;;
11604;SDS011;5858;43.076;25.626;2023-02-19T14:26:35;1.90;;;1.45;;
11604;SDS011;5858;43.076;25.626;2023-02-19T14:29:34;2.00;;;1.33;;
11604;SDS011;5858;43.076;25.626;2023-02-19T14:32:06;1.50;;;1.25;;
11604;SDS011;5858;43.076;25.626;2023-02-19T14:38:26;3.88;;;2.60;;
11604;SDS011;5858;43.076;25.626;2023-02-19T14:41:41;2.10;;;1.83;;
11604;SDS011;5858;43.076;25.626;2023-02-19T14:44:54;2.25;;;1.80;;
11604;SDS011;5858;43.076;25.626;2023-02-19T14:47:39;2.30;;;1.70;;
11604;SDS011;5858;43.076;25.626;2023-02-19T14:50:23;2.58;;;2.20;;
11604;SDS011;5858;43.076;25.626;2023-02-19T14:53:02;2.60;;;2.08;;
11604;SDS011;5858;43.076;25.626;2023-02-19T14:55:34;4.40;;;2.40;;
11604;SDS011;5858;43.076;25.626;2023-02-19T14:58:10;3.58;;;1.90;;
11604;SDS011;5858;43.076;25.626;2023-02-19T15:01:13;5.28;;;2.40;;
11604;SDS011;5858;43.076;25.626;2023-02-19T15:04:22;2.88;;;1.92;;
11604;SDS011;5858;43.076;25.626;2023-02-19T15:10:29;2.85;;;2.30;;
11604;SDS011;5858;43.076;25.626;2023-02-19T15:13:04;3.53;;;3.05;;
11604;SDS011;5858;43.076;25.626;2023-02-19T15:15:42;4.47;;;2.60;;
11604;SDS011;5858;43.076;25.626;2023-02-19T15:35:03;4.00;;;2.65;;
11604;SDS011;5858;43.076;25.626;2023-02-19T15:47:21;3.20;;;2.70;;
11604;SDS011;5858;43.076;25.626;2023-02-19T15:53:03;6.38;;;3.47;;
11604;SDS011;5858;43.076;25.626;2023-02-19T16:02:01;6.15;;;4.53;;
11604;SDS011;5858;43.076;25.626;2023-02-19T16:04:32;6.93;;;3.13;;
11604;SDS011;5858;43.076;25.626;2023-02-19T16:07:24;5.28;;;3.78;;
11604;SDS011;5858;43.076;25.626;2023-02-19T16:20:25;19.25;;;11.52;;
11604;SDS011;5858;43.076;25.626;2023-02-19T16:56:57;43.70;;;25.73;;
11604;SDS011;5858;43.076;25.626;2023-02-19T16:59:47;54.83;;;27.17;;
11604;SDS011;5858;43.076;25.626;2023-02-19T17:04:45;28.20;;;15.57;;
11604;SDS011;5858;43.076;25.626;2023-02-19T17:23:43;15.70;;;9.70;;
11604;SDS011;5858;43.076;25.626;2023-02-19T17:26:24;12.33;;;9.90;;
11604;SDS011;5858;43.076;25.626;2023-02-19T17:29:09;11.77;;;9.50;;
11604;SDS011;5858;43.076;25.626;2023-02-19T17:32:21;10.43;;;8.03;;
11604;SDS011;5858;43.076;25.626;2023-02-19T17:35:17;13.00;;;6.80;;
11604;SDS011;5858;43.076;25.626;2023-02-19T17:37:58;9.23;;;6.77;;
11604;SDS011;5858;43.076;25.626;2023-02-19T17:40:36;7.33;;;6.23;;
11604;SDS011;5858;43.076;25.626;2023-02-19T17:43:06;6.37;;;5.33;;
11604;SDS011;5858;43.076;25.626;2023-02-19T17:45:49;9.63;;;5.50;;
11604;SDS011;5858;43.076;25.626;2023-02-19T17:48:29;7.63;;;5.30;;
11604;SDS011;5858;43.076;25.626;2023-02-19T17:51:23;8.10;;;4.80;;
11604;SDS011;5858;43.076;25.626;2023-02-19T17:53:55;7.03;;;5.40;;
11604;SDS011;5858;43.076;25.626;2023-02-19T17:56:32;8.23;;;6.10;;
11604;SDS011;5858;43.076;25.626;2023-02-19T17:59:15;8.83;;;5.53;;
11604;SDS011;5858;43.076;25.626;2023-02-19T18:01:43;15.10;;;8.47;;
11604;SDS011;5858;43.076;25.626;2023-02-19T18:04:16;22.90;;;14.70;;
11604;SDS011;5858;43.076;25.626;2023-02-19T18:08:32;20.50;;;11.77;;
11604;SDS011;5858;43.076;25.626;2023-02-19T18:17:27;11.13;;;6.53;;
11604;SDS011;5858;43.076;25.626;2023-02-19T18:19:55;11.43;;;6.53;;